createdAt,value
2019-01-27T00:02:16.018Z,1.03
2019-01-27T00:04:44.479Z,0.70
2019-01-27T00:07:12.940Z,0.60
2019-01-27T00:09:41.379Z,0.70
2019-01-27T00:12:09.840Z,0.60
2019-01-27T00:14:38.282Z,0.70
2019-01-27T00:17:06.803Z,0.70
2019-01-27T00:19:35.258Z,0.50
2019-01-27T00:22:03.694Z,0.50
2019-01-27T00:24:32.455Z,0.50
2019-01-27T00:27:00.919Z,0.40
2019-01-27T00:29:29.353Z,0.57
2019-01-27T00:31:57.780Z,0.80
2019-01-27T00:34:26.218Z,0.50
2019-01-27T00:36:54.667Z,0.47
2019-01-27T00:39:23.119Z,0.50
2019-01-27T00:41:51.922Z,0.70
2019-01-27T00:44:20.390Z,0.70
2019-01-27T00:46:48.841Z,0.50
2019-01-27T00:49:17.292Z,0.57
2019-01-27T00:51:46.032Z,0.80
2019-01-27T00:54:14.482Z,0.67
2019-01-27T00:56:42.925Z,0.47
2019-01-27T00:59:11.364Z,0.40
2019-01-27T01:01:39.811Z,0.50
2019-01-27T01:04:08.264Z,0.50
2019-01-27T01:06:36.726Z,0.43
2019-01-27T01:09:08.272Z,0.50
2019-01-27T01:11:36.729Z,0.40
2019-01-27T01:14:05.799Z,0.40
2019-01-27T01:16:34.282Z,0.50
2019-01-27T01:19:02.780Z,0.30
2019-01-27T01:21:31.358Z,0.40
2019-01-27T01:24:00.282Z,0.40
2019-01-27T01:26:28.706Z,0.40
2019-01-27T01:28:57.147Z,0.30
2019-01-27T01:31:25.617Z,0.40
2019-01-27T01:33:54.036Z,0.40
2019-01-27T01:36:22.518Z,0.37
2019-01-27T01:38:50.946Z,0.37
2019-01-27T01:41:19.384Z,0.40
2019-01-27T01:43:47.826Z,0.30
2019-01-27T01:46:16.306Z,0.37
2019-01-27T01:48:44.901Z,0.40
2019-01-27T01:51:13.359Z,0.43
2019-01-27T01:53:42.128Z,0.40
2019-01-27T01:56:10.598Z,0.20
2019-01-27T01:58:39.035Z,0.50
2019-01-27T02:01:07.768Z,0.40
2019-01-27T02:03:36.214Z,0.40
2019-01-27T02:06:05.463Z,0.30
2019-01-27T02:08:34.008Z,0.40
2019-01-27T02:11:02.441Z,0.23
2019-01-27T02:13:30.886Z,0.40
2019-01-27T02:16:01.945Z,0.30
2019-01-27T02:18:31.055Z,0.50
2019-01-27T02:20:59.931Z,0.30
2019-01-27T02:23:28.456Z,0.40
2019-01-27T02:25:56.913Z,0.20
2019-01-27T02:28:25.374Z,0.30
2019-01-27T02:30:54.184Z,0.20
2019-01-27T02:33:22.639Z,0.30
2019-01-27T02:35:51.087Z,0.40
2019-01-27T02:38:19.614Z,0.40
2019-01-27T02:40:48.059Z,0.30
2019-01-27T02:43:16.516Z,0.50
2019-01-27T02:45:44.957Z,0.40
2019-01-27T02:48:13.422Z,0.50
2019-01-27T02:50:41.895Z,0.40
2019-01-27T02:53:10.337Z,0.30
2019-01-27T02:55:38.854Z,0.27
2019-01-27T02:58:07.324Z,0.40
2019-01-27T03:00:36.244Z,0.30
2019-01-27T03:03:05.443Z,0.50
2019-01-27T03:05:44.239Z,0.30
2019-01-27T03:08:13.003Z,0.43
2019-01-27T03:10:41.994Z,0.30
2019-01-27T03:13:10.893Z,0.40
2019-01-27T03:15:39.767Z,0.30
2019-01-27T03:18:08.280Z,0.30
2019-01-27T03:20:36.759Z,0.40
2019-01-27T03:23:05.760Z,0.30
2019-01-27T03:25:34.278Z,0.30
2019-01-27T03:28:02.708Z,0.60
2019-01-27T03:30:31.157Z,0.30
2019-01-27T03:32:59.612Z,0.30
2019-01-27T03:35:28.078Z,0.30
2019-01-27T03:37:56.525Z,0.30
2019-01-27T03:40:25.388Z,0.20
2019-01-27T03:42:53.901Z,0.30
2019-01-27T03:45:23.489Z,0.33
2019-01-27T03:47:52.299Z,0.30
2019-01-27T03:50:23.713Z,0.30
2019-01-27T03:52:52.179Z,0.30
2019-01-27T03:55:23.383Z,0.40
2019-01-27T03:57:51.859Z,0.33
2019-01-27T04:00:22.468Z,0.30
2019-01-27T04:02:50.908Z,0.37
2019-01-27T04:05:19.926Z,0.40
2019-01-27T04:07:48.818Z,0.40
2019-01-27T04:10:25.549Z,0.37
2019-01-27T04:12:54.070Z,0.40
2019-01-27T04:15:22.614Z,0.40
2019-01-27T04:17:51.325Z,0.37
2019-01-27T04:20:23.390Z,0.20
2019-01-27T04:22:52.367Z,0.30
2019-01-27T04:25:20.806Z,0.30
2019-01-27T04:27:49.539Z,0.40
2019-01-27T04:30:22.160Z,0.37
2019-01-27T04:32:50.757Z,0.30
2019-01-27T04:35:19.296Z,0.33
2019-01-27T04:37:47.741Z,0.30
2019-01-27T04:40:20.989Z,0.30
2019-01-27T04:42:49.442Z,0.30
2019-01-27T04:45:20.092Z,0.30
2019-01-27T04:47:48.534Z,0.30
2019-01-27T04:50:17.439Z,0.20
2019-01-27T04:52:46.153Z,0.37
2019-01-27T04:55:16.939Z,0.40
2019-01-27T04:57:46.151Z,0.30
2019-01-27T05:00:17.743Z,0.33
2019-01-27T05:02:47.991Z,0.40
2019-01-27T05:05:16.444Z,0.30
2019-01-27T05:07:45.203Z,0.30
2019-01-27T05:10:14.992Z,0.30
2019-01-27T05:12:43.440Z,0.20
2019-01-27T05:15:19.493Z,0.30
2019-01-27T05:17:48.335Z,0.30
2019-01-27T05:20:16.773Z,0.20
2019-01-27T05:22:45.388Z,0.20
2019-01-27T05:25:16.010Z,0.30
2019-01-27T05:27:44.525Z,0.30
2019-01-27T05:30:16.536Z,0.20
2019-01-27T05:32:45.001Z,0.30
2019-01-27T05:35:13.841Z,0.30
2019-01-27T05:37:42.295Z,0.40
2019-01-27T05:43:39.685Z,0.30
2019-01-27T05:46:08.110Z,0.40
2019-01-27T05:48:36.566Z,0.20
2019-01-27T05:51:05.032Z,0.30
2019-01-27T05:53:33.481Z,0.40
2019-01-27T05:56:01.966Z,0.30
2019-01-27T05:58:30.411Z,0.30
2019-01-27T06:00:59.262Z,0.40
2019-01-27T06:03:27.785Z,0.20
2019-01-27T06:05:56.262Z,0.30
2019-01-27T06:08:24.690Z,0.40
2019-01-27T06:10:53.172Z,0.43
2019-01-27T06:13:21.947Z,0.50
2019-01-27T06:15:50.444Z,0.27
2019-01-27T06:18:19.170Z,0.30
2019-01-27T06:20:47.652Z,0.40
2019-01-27T06:23:16.107Z,0.20
2019-01-27T06:25:44.559Z,0.20
2019-01-27T06:28:13.017Z,0.30
2019-01-27T06:30:41.498Z,0.40
2019-01-27T06:33:29.540Z,0.30
2019-01-27T06:35:57.983Z,0.37
2019-01-27T06:38:26.514Z,0.40
2019-01-27T06:40:55.319Z,0.33
2019-01-27T06:43:23.781Z,0.30
2019-01-27T06:45:52.259Z,0.30
2019-01-27T06:48:20.732Z,0.30
2019-01-27T06:50:49.176Z,0.30
2019-01-27T06:53:17.641Z,0.43
2019-01-27T06:55:46.104Z,0.30
2019-01-27T06:58:14.601Z,0.27
2019-01-27T07:00:44.694Z,0.40
2019-01-27T07:03:14.926Z,0.40
2019-01-27T07:05:45.035Z,0.60
2019-01-27T07:08:17.853Z,0.50
2019-01-27T07:11:04.152Z,0.30
2019-01-27T07:13:51.199Z,0.47
2019-01-27T07:16:24.434Z,0.50
2019-01-27T07:19:03.659Z,0.40
2019-01-27T07:21:36.287Z,0.40
2019-01-27T07:24:06.754Z,0.30
2019-01-27T07:26:36.844Z,0.60
2019-01-27T07:29:16.240Z,0.47
2019-01-27T07:31:49.286Z,0.30
2019-01-27T07:34:26.183Z,0.30
2019-01-27T07:36:56.296Z,0.37
2019-01-27T07:39:32.484Z,0.30
2019-01-27T07:42:14.753Z,0.40
2019-01-27T07:44:44.871Z,0.40
2019-01-27T07:47:14.974Z,0.40
2019-01-27T07:49:54.000Z,0.60
2019-01-27T07:52:26.812Z,0.80
2019-01-27T07:54:56.890Z,0.47
2019-01-27T07:57:27.020Z,0.53
2019-01-27T07:59:57.430Z,0.37
2019-01-27T08:02:36.683Z,0.30
2019-01-27T08:05:16.035Z,0.33
2019-01-27T08:07:54.656Z,0.43
2019-01-27T08:10:27.510Z,0.40
2019-01-27T08:13:03.394Z,0.33
2019-01-27T08:15:35.985Z,0.30
2019-01-27T08:18:06.762Z,0.30
2019-01-27T08:20:52.986Z,0.30
2019-01-27T08:23:28.846Z,0.20
2019-01-27T08:26:01.598Z,0.30
2019-01-27T08:28:32.103Z,0.30
2019-01-27T08:31:04.989Z,0.40
2019-01-27T08:33:37.904Z,0.20
2019-01-27T08:36:20.685Z,0.40
2019-01-27T08:38:50.837Z,0.40
2019-01-27T08:41:29.964Z,0.30
2019-01-27T08:44:05.503Z,0.50
2019-01-27T08:46:35.590Z,0.20
2019-01-27T08:49:04.050Z,0.23
2019-01-27T08:51:32.470Z,0.20
2019-01-27T08:54:00.946Z,0.30
2019-01-27T08:56:29.482Z,0.30
2019-01-27T08:58:58.004Z,0.30
2019-01-27T09:01:43.096Z,0.30
2019-01-27T09:04:19.185Z,0.20
2019-01-27T09:06:49.279Z,0.30
2019-01-27T09:09:19.400Z,0.20
2019-01-27T09:11:55.427Z,0.13
2019-01-27T09:14:25.538Z,0.20
2019-01-27T09:16:58.542Z,0.30
2019-01-27T09:19:31.099Z,0.20
2019-01-27T09:22:07.157Z,0.20
2019-01-27T09:24:37.243Z,0.20
2019-01-27T09:27:07.601Z,0.37
2019-01-27T09:29:50.002Z,0.10
2019-01-27T09:32:36.045Z,0.23
2019-01-27T09:35:12.195Z,0.30
2019-01-27T09:37:45.230Z,0.33
2019-01-27T09:40:32.561Z,0.20
2019-01-27T09:43:02.636Z,0.33
2019-01-27T09:45:33.123Z,0.30
2019-01-27T09:48:12.339Z,0.50
2019-01-27T09:50:45.200Z,0.40
2019-01-27T09:53:21.109Z,0.30
2019-01-27T09:55:51.294Z,0.30
2019-01-27T09:58:30.216Z,0.33
2019-01-27T10:01:06.299Z,0.30
2019-01-27T10:03:36.461Z,0.30
2019-01-27T10:06:16.056Z,0.40
2019-01-27T10:08:46.170Z,0.30
2019-01-27T10:11:26.592Z,0.27
2019-01-27T10:13:56.537Z,0.30
2019-01-27T10:16:32.286Z,0.33
2019-01-27T10:19:02.346Z,0.40
2019-01-27T10:21:35.779Z,0.30
2019-01-27T10:24:16.048Z,0.20
2019-01-27T10:26:49.006Z,0.30
2019-01-27T10:29:28.102Z,0.50
2019-01-27T10:32:00.601Z,0.40
2019-01-27T10:34:31.050Z,0.33
2019-01-27T10:37:12.182Z,0.30
2019-01-27T10:39:42.184Z,0.30
2019-01-27T10:42:14.987Z,0.30
2019-01-27T10:44:45.455Z,0.50
2019-01-27T10:47:33.298Z,0.30
2019-01-27T10:50:03.390Z,0.40
2019-01-27T10:52:33.653Z,0.40
2019-01-27T10:55:07.031Z,0.30
2019-01-27T10:57:53.115Z,0.50
2019-01-27T11:00:27.148Z,0.60
2019-01-27T11:02:57.405Z,0.50
2019-01-27T11:05:42.560Z,0.47
2019-01-27T11:08:15.314Z,0.40
2019-01-27T11:10:54.552Z,0.40
2019-01-27T11:13:33.622Z,0.30
2019-01-27T11:16:06.392Z,0.50
2019-01-27T11:18:48.264Z,0.20
2019-01-27T11:21:33.349Z,0.40
2019-01-27T11:24:03.540Z,0.47
2019-01-27T11:26:42.900Z,0.40
2019-01-27T11:29:18.866Z,0.50
2019-01-27T11:31:51.895Z,0.53
2019-01-27T11:34:27.711Z,0.50
2019-01-27T11:36:57.830Z,0.30
2019-01-27T11:39:44.306Z,0.40
2019-01-27T11:42:17.444Z,0.40
2019-01-27T11:44:59.410Z,0.50
2019-01-27T11:47:32.308Z,0.40
2019-01-27T11:50:11.628Z,0.40
2019-01-27T11:52:42.315Z,0.50
2019-01-27T11:55:11.210Z,0.50
2019-01-27T11:57:39.695Z,0.40
2019-01-27T12:00:14.578Z,0.50
2019-01-27T12:02:46.652Z,0.30
2019-01-27T12:05:13.369Z,0.50
2019-01-27T12:07:43.355Z,0.53
2019-01-27T12:10:14.716Z,0.40
2019-01-27T12:12:43.431Z,0.50
2019-01-27T12:15:17.266Z,0.60
2019-01-27T12:17:46.147Z,0.50
2019-01-27T12:20:15.937Z,0.50
2019-01-27T12:22:44.376Z,0.50
2019-01-27T12:25:15.479Z,0.37
2019-01-27T12:27:45.430Z,0.47
2019-01-27T12:30:16.791Z,0.50
2019-01-27T12:32:45.304Z,0.60
2019-01-27T12:35:13.875Z,0.50
2019-01-27T12:37:42.390Z,0.40
2019-01-27T12:40:19.428Z,0.30
2019-01-27T12:42:47.975Z,0.50
2019-01-27T12:45:17.864Z,0.50
2019-01-27T12:47:47.051Z,0.60
2019-01-27T12:50:17.728Z,0.70
2019-01-27T12:52:48.215Z,0.53
2019-01-27T12:55:16.735Z,0.60
2019-01-27T12:57:45.176Z,0.60
2019-01-27T13:00:19.515Z,0.63
2019-01-27T13:02:48.000Z,0.50
2019-01-27T13:05:16.703Z,0.40
2019-01-27T13:07:45.201Z,0.50
2019-01-27T13:10:15.921Z,0.53
2019-01-27T13:12:44.885Z,0.57
2019-01-27T13:15:17.033Z,0.40
2019-01-27T13:17:45.663Z,0.50
2019-01-27T13:20:15.318Z,0.50
2019-01-27T13:22:44.183Z,0.50
2019-01-27T13:25:15.598Z,0.50
2019-01-27T13:27:44.561Z,0.50
2019-01-27T13:30:26.685Z,0.80
2019-01-27T13:32:55.292Z,0.50
2019-01-27T13:35:23.895Z,0.67
2019-01-27T13:37:52.873Z,0.50
2019-01-27T13:40:23.198Z,0.70
2019-01-27T13:42:52.006Z,0.50
2019-01-27T13:45:26.046Z,0.50
2019-01-27T13:47:58.842Z,0.73
2019-01-27T13:50:25.375Z,0.43
2019-01-27T13:52:54.622Z,0.50
2019-01-27T13:55:31.702Z,0.43
2019-01-27T13:58:00.559Z,0.40
2019-01-27T14:00:31.663Z,0.40
2019-01-27T14:03:00.209Z,0.70
2019-01-27T14:05:29.371Z,0.73
2019-01-27T14:07:57.912Z,0.50
2019-01-27T14:10:28.634Z,0.50
2019-01-27T14:12:57.094Z,0.50
2019-01-27T14:15:31.422Z,0.57
2019-01-27T14:17:59.898Z,0.47
2019-01-27T14:20:28.426Z,0.60
2019-01-27T14:22:56.953Z,0.60
2019-01-27T14:25:28.467Z,0.50
2019-01-27T14:27:57.438Z,0.70
2019-01-27T14:30:32.030Z,0.67
2019-01-27T14:33:00.461Z,0.50
2019-01-27T14:35:28.910Z,0.53
2019-01-27T14:37:57.358Z,0.60
2019-01-27T14:40:29.029Z,0.73
2019-01-27T14:42:57.857Z,0.60
2019-01-27T14:45:33.926Z,0.77
2019-01-27T14:48:03.251Z,0.60
2019-01-27T14:50:34.789Z,0.60
2019-01-27T14:53:04.206Z,0.70
2019-01-27T14:55:32.655Z,0.70
2019-01-27T14:58:01.111Z,0.87
2019-01-27T15:00:36.493Z,0.60
2019-01-27T15:03:02.695Z,1.00
2019-01-27T15:05:31.150Z,0.60
2019-01-27T15:08:00.371Z,0.90
2019-01-27T15:10:29.675Z,0.70
2019-01-27T15:12:58.104Z,0.60
2019-01-27T15:15:27.038Z,0.60
2019-01-27T15:17:55.494Z,0.40
2019-01-27T15:20:32.699Z,0.60
2019-01-27T15:23:01.439Z,0.43
2019-01-27T15:25:29.988Z,0.60
2019-01-27T15:27:58.468Z,0.50
2019-01-27T15:30:29.846Z,0.70
2019-01-27T15:32:58.722Z,0.40
2019-01-27T15:35:27.324Z,0.60
2019-01-27T15:37:55.799Z,0.80
2019-01-27T15:40:24.689Z,0.77
2019-01-27T15:42:53.178Z,0.80
2019-01-27T15:45:32.929Z,1.33
2019-01-27T15:48:01.668Z,1.70
2019-01-27T15:50:37.611Z,1.33
2019-01-27T15:53:06.684Z,1.00
2019-01-27T15:55:38.193Z,0.67
2019-01-27T15:58:07.075Z,1.10
2019-01-27T16:00:35.845Z,0.77
2019-01-27T16:03:04.771Z,4.67
2019-01-27T16:05:33.362Z,1.50
2019-01-27T16:08:01.918Z,1.13
2019-01-27T16:10:30.363Z,2.10
2019-01-27T16:12:58.932Z,1.50
2019-01-27T16:15:33.138Z,1.00
2019-01-27T16:18:01.596Z,1.70
2019-01-27T16:20:30.641Z,1.30
2019-01-27T16:23:00.744Z,1.33
2019-01-27T16:25:29.219Z,1.80
2019-01-27T16:27:57.791Z,1.80
2019-01-27T16:30:27.949Z,1.20
2019-01-27T16:33:03.454Z,1.40
2019-01-27T16:35:32.755Z,1.60
2019-01-27T16:38:01.290Z,1.50
2019-01-27T16:40:29.763Z,1.60
2019-01-27T16:42:58.232Z,1.37
2019-01-27T16:45:27.089Z,1.70
2019-01-27T16:47:55.564Z,1.80
2019-01-27T16:50:27.267Z,1.77
2019-01-27T16:52:55.756Z,2.10
2019-01-27T16:55:24.632Z,1.57
2019-01-27T16:57:53.073Z,1.70
2019-01-27T17:00:32.266Z,1.73
2019-01-27T17:03:00.781Z,1.70
2019-01-27T17:05:29.283Z,1.70
2019-01-27T17:07:57.890Z,1.90
2019-01-27T17:10:29.216Z,1.70
2019-01-27T17:12:57.717Z,1.70
2019-01-27T17:15:26.533Z,1.83
2019-01-27T17:17:55.124Z,1.50
2019-01-27T17:20:26.083Z,1.07
2019-01-27T17:22:55.473Z,1.20
2019-01-27T17:25:24.044Z,1.03
2019-01-27T17:27:52.578Z,1.00
2019-01-27T17:30:23.662Z,1.00
2019-01-27T17:32:52.758Z,1.20
2019-01-27T17:35:22.231Z,1.40
2019-01-27T17:37:51.134Z,1.50
2019-01-27T17:40:20.341Z,1.50
2019-01-27T17:42:49.003Z,1.23
2019-01-27T17:45:20.159Z,1.07
2019-01-27T17:47:49.065Z,0.50
2019-01-27T17:50:19.717Z,0.50
2019-01-27T17:52:48.185Z,0.57
2019-01-27T17:55:39.239Z,0.40
2019-01-27T17:58:23.847Z,0.63
2019-01-27T18:01:02.783Z,0.50
2019-01-27T18:03:35.826Z,0.53
2019-01-27T18:06:22.923Z,0.40
2019-01-27T18:08:55.631Z,0.60
2019-01-27T18:11:26.048Z,0.70
2019-01-27T18:13:55.670Z,0.40
2019-01-27T18:16:24.172Z,0.80
2019-01-27T18:18:52.613Z,0.67
2019-01-27T18:21:21.055Z,0.50
2019-01-27T18:23:51.071Z,0.40
2019-01-27T18:26:19.659Z,0.87
2019-01-27T18:28:51.824Z,0.47
2019-01-27T18:31:18.355Z,0.40
2019-01-27T18:33:46.831Z,0.47
2019-01-27T18:36:15.363Z,0.63
2019-01-27T18:38:44.248Z,0.50
2019-01-27T18:41:13.082Z,0.60
2019-01-27T18:43:41.575Z,0.60
2019-01-27T18:46:10.487Z,0.57
2019-01-27T18:48:39.044Z,0.60
2019-01-27T18:51:07.544Z,0.73
2019-01-27T18:53:43.596Z,0.80
2019-01-27T18:56:13.755Z,0.70
2019-01-27T18:58:49.616Z,0.80
2019-01-27T19:01:22.437Z,1.10
2019-01-27T19:03:52.871Z,0.63
2019-01-27T19:06:28.992Z,0.73
2019-01-27T19:09:07.908Z,0.77
2019-01-27T19:11:53.053Z,0.70
2019-01-27T19:14:29.041Z,0.80
2019-01-27T19:16:59.189Z,0.80
2019-01-27T19:19:29.715Z,1.00
2019-01-27T19:22:00.156Z,0.73
2019-01-27T19:24:30.269Z,0.70
2019-01-27T19:27:03.043Z,1.00
2019-01-27T19:29:33.153Z,1.40
2019-01-27T19:32:03.254Z,1.10
2019-01-27T19:34:33.352Z,1.00
2019-01-27T19:37:06.397Z,1.10
2019-01-27T19:39:51.558Z,1.27
2019-01-27T19:42:27.771Z,1.27
2019-01-27T19:45:03.749Z,1.33
2019-01-27T19:47:36.532Z,1.30
2019-01-27T19:50:18.367Z,1.60
2019-01-27T19:52:51.444Z,1.50
2019-01-27T19:55:23.914Z,1.60
2019-01-27T19:58:02.725Z,1.50
2019-01-27T20:00:42.379Z,1.37
2019-01-27T20:03:30.773Z,1.30
2019-01-27T20:06:05.188Z,1.50
2019-01-27T20:08:38.755Z,1.67
2019-01-27T20:11:30.772Z,1.70
2019-01-27T20:14:03.518Z,1.70
2019-01-27T20:16:36.739Z,1.70
2019-01-27T20:19:21.027Z,1.50
2019-01-27T20:22:07.260Z,1.60
2019-01-27T20:24:37.337Z,1.30
2019-01-27T20:27:07.750Z,1.10
2019-01-27T20:29:41.003Z,1.30
2019-01-27T20:32:29.570Z,0.90
2019-01-27T20:35:11.732Z,0.70
2019-01-27T20:37:53.619Z,0.80
2019-01-27T20:40:26.421Z,0.80
2019-01-27T20:42:59.641Z,0.70
2019-01-27T20:45:38.607Z,0.80
2019-01-27T20:48:15.042Z,0.90
2019-01-27T20:50:48.131Z,0.80
2019-01-27T20:53:24.012Z,1.07
2019-01-27T20:56:00.246Z,1.30
2019-01-27T20:58:33.107Z,1.40
2019-01-27T21:01:03.250Z,1.20
2019-01-27T21:03:35.053Z,1.00
2019-01-27T21:06:09.032Z,1.30
2019-01-27T21:08:39.201Z,1.30
2019-01-27T21:11:09.371Z,1.10
2019-01-27T21:13:39.462Z,1.27
2019-01-27T21:16:24.589Z,1.10
2019-01-27T21:18:57.121Z,1.23
2019-01-27T21:21:25.620Z,1.40
2019-01-27T21:23:54.367Z,1.40
2019-01-27T21:26:22.851Z,1.80
2019-01-27T21:28:51.627Z,1.80
2019-01-27T21:31:20.106Z,2.30
2019-01-27T21:33:48.592Z,1.80
2019-01-27T21:36:17.218Z,2.10
2019-01-27T21:38:45.713Z,2.10
2019-01-27T21:41:14.553Z,2.20
2019-01-27T21:43:43.166Z,2.30
2019-01-27T21:46:11.700Z,1.93
2019-01-27T21:48:40.151Z,2.47
2019-01-27T21:51:08.597Z,2.20
2019-01-27T21:53:37.057Z,2.40
2019-01-27T21:56:05.590Z,2.50
2019-01-27T21:58:34.153Z,2.80
2019-01-27T22:01:02.990Z,2.63
2019-01-27T22:03:31.438Z,2.43
2019-01-27T22:05:59.901Z,2.40
2019-01-27T22:08:28.374Z,3.17
2019-01-27T22:10:56.861Z,2.57
2019-01-27T22:13:25.338Z,2.97
2019-01-27T22:15:53.790Z,3.10
2019-01-27T22:18:22.265Z,3.03
2019-01-27T22:20:50.714Z,3.60
2019-01-27T22:23:19.266Z,2.83
2019-01-27T22:25:47.718Z,3.63
2019-01-27T22:28:17.687Z,3.00
2019-01-27T22:30:46.804Z,3.30
2019-01-27T22:33:15.592Z,3.33
2019-01-27T22:35:44.501Z,3.23
2019-01-27T22:38:12.958Z,2.93
2019-01-27T22:40:41.399Z,3.00
2019-01-27T22:43:09.872Z,3.03
2019-01-27T22:45:38.317Z,3.40
2019-01-27T22:48:06.786Z,3.20
2019-01-27T22:50:35.249Z,2.97
2019-01-27T22:53:03.735Z,2.90
2019-01-27T22:55:32.206Z,2.40
2019-01-27T22:58:00.666Z,2.97
2019-01-27T23:00:39.670Z,2.30
2019-01-27T23:03:09.246Z,2.50
2019-01-27T23:05:37.684Z,2.90
2019-01-27T23:08:06.167Z,2.70
2019-01-27T23:10:34.642Z,3.63
2019-01-27T23:13:03.537Z,2.70
2019-01-27T23:15:32.329Z,2.60
2019-01-27T23:18:00.790Z,2.40
2019-01-27T23:20:29.252Z,2.10
2019-01-27T23:22:57.889Z,2.40
2019-01-27T23:25:26.340Z,2.23
2019-01-27T23:27:54.774Z,2.47
2019-01-27T23:30:23.221Z,2.27
2019-01-27T23:32:51.747Z,2.60
2019-01-27T23:35:20.181Z,2.00
2019-01-27T23:37:48.627Z,2.33
2019-01-27T23:40:17.432Z,1.73
2019-01-27T23:42:45.871Z,1.90
2019-01-27T23:45:14.477Z,2.17
2019-01-27T23:47:42.922Z,1.80
2019-01-27T23:50:11.704Z,2.10
2019-01-27T23:52:40.561Z,2.20
2019-01-27T23:55:10.375Z,2.30
2019-01-27T23:57:38.818Z,1.57
